Time;durP1;ratioP1;P1;durP2;ratioP2;P2;SDS_P1;SDS_P2;PMS_P1;PMS_P2;Temp;Humidity;BMP_temperature;BMP_pressure;BME280_temperature;BME280_humidity;BME280_pressure;Samples;Min_cycle;Max_cycle;Signal;HPM_P1;HPM_P2
2024/05/06 00:01:31;;;;;;;6.30;2.22;;;;;;;;;;5454614;26;19924;-89
2024/05/06 00:03:57;;;;;;;8.80;1.80;;;;;;;;;;5454735;26;19998;-89
2024/05/06 00:06:23;;;;;;;5.15;1.83;;;;;;;;;;5455052;26;19998;-91
2024/05/06 00:08:49;;;;;;;8.30;2.00;;;;;;;;;;5486413;26;20002;-89
2024/05/06 00:11:15;;;;;;;5.20;1.70;;;;;;;;;;5454563;26;20038;-89
2024/05/06 00:13:41;;;;;;;11.32;2.55;;;;;;;;;;5454625;26;20002;-89
2024/05/06 00:16:08;;;;;;;5.95;2.20;;;;;;;;;;5455337;26;20002;-90
2024/05/06 00:18:34;;;;;;;6.45;1.90;;;;;;;;;;5454800;26;20001;-89
2024/05/06 00:21:00;;;;;;;10.82;2.42;;;;;;;;;;5455921;26;19994;-89
2024/05/06 00:23:25;;;;;;;5.78;2.20;;;;;;;;;;5458148;26;20180;-90
2024/05/06 00:25:51;;;;;;;2.85;1.70;;;;;;;;;;5457883;26;20019;-88
2024/05/06 00:28:17;;;;;;;7.85;2.10;;;;;;;;;;5458085;26;20062;-88
2024/05/06 00:30:43;;;;;;;7.45;2.30;;;;;;;;;;5457760;26;20342;-89
2024/05/06 00:33:10;;;;;;;6.15;2.88;;;;;;;;;;5458357;26;20035;-90
2024/05/06 00:35:36;;;;;;;7.43;2.30;;;;;;;;;;5458990;26;19998;-90
2024/05/06 00:38:02;;;;;;;13.20;2.58;;;;;;;;;;5457786;26;19994;-89
2024/05/06 00:40:28;;;;;;;5.70;1.80;;;;;;;;;;5457901;26;20071;-88
2024/05/06 00:43:00;;;;;;;11.55;1.90;;;;;;;;;;5489838;26;20005;-89
2024/05/06 00:45:27;;;;;;;7.50;1.77;;;;;;;;;;5457690;26;20084;-89
2024/05/06 00:47:53;;;;;;;9.10;1.98;;;;;;;;;;5489483;26;20006;-89
2024/05/06 00:50:19;;;;;;;6.75;1.88;;;;;;;;;;5458041;26;19990;-89
2024/05/06 00:52:46;;;;;;;6.35;1.90;;;;;;;;;;5457612;26;20006;-88
2024/05/06 00:55:13;;;;;;;6.38;1.98;;;;;;;;;;5457532;26;19994;-90
2024/05/06 00:57:40;;;;;;;6.85;1.70;;;;;;;;;;5458453;26;20068;-90
2024/05/06 01:00:08;;;;;;;7.90;1.80;;;;;;;;;;5457418;26;20002;-88
2024/05/06 01:02:35;;;;;;;7.45;1.95;;;;;;;;;;5457099;26;20009;-91
2024/05/06 01:05:01;;;;;;;5.72;1.83;;;;;;;;;;5489405;26;20001;-89
2024/05/06 01:07:27;;;;;;;5.18;1.83;;;;;;;;;;5457410;26;19994;-89
2024/05/06 01:09:53;;;;;;;4.65;1.65;;;;;;;;;;5457385;26;20016;-90
2024/05/06 01:12:19;;;;;;;3.92;1.48;;;;;;;;;;5457521;26;20457;-89
2024/05/06 01:14:46;;;;;;;4.80;1.58;;;;;;;;;;5457362;26;19994;-88
2024/05/06 01:17:12;;;;;;;6.35;1.77;;;;;;;;;;5458604;26;19994;-88
2024/05/06 01:19:38;;;;;;;5.95;1.83;;;;;;;;;;5456942;26;19998;-88
2024/05/06 01:22:06;;;;;;;7.05;1.77;;;;;;;;;;5456585;26;20013;-90
2024/05/06 01:24:33;;;;;;;3.05;1.50;;;;;;;;;;5456957;26;19990;-89
2024/05/06 01:26:59;;;;;;;3.75;1.65;;;;;;;;;;5456807;26;20013;-88
2024/05/06 01:29:25;;;;;;;7.00;1.88;;;;;;;;;;5457375;26;19990;-88
2024/05/06 01:31:51;;;;;;;4.32;1.33;;;;;;;;;;5455669;26;19994;-89
2024/05/06 01:34:17;;;;;;;7.15;1.67;;;;;;;;;;5456282;26;19998;-89
2024/05/06 01:36:43;;;;;;;4.93;2.15;;;;;;;;;;5458090;26;19994;-90
2024/05/06 01:39:09;;;;;;;5.20;1.70;;;;;;;;;;5458167;26;20009;-89
2024/05/06 01:41:35;;;;;;;2.97;1.50;;;;;;;;;;5456902;26;19994;-90
2024/05/06 01:44:01;;;;;;;2.30;1.42;;;;;;;;;;5457180;26;20009;-88
2024/05/06 01:46:27;;;;;;;4.60;1.48;;;;;;;;;;5457099;26;20026;-89
2024/05/06 01:48:53;;;;;;;4.45;1.50;;;;;;;;;;5456891;26;20515;-88
2024/05/06 01:51:19;;;;;;;6.40;1.77;;;;;;;;;;5456701;26;19994;-89
2024/05/06 01:53:45;;;;;;;7.35;1.80;;;;;;;;;;5456511;26;20026;-91
2024/05/06 01:56:11;;;;;;;4.07;1.52;;;;;;;;;;5457708;26;20346;-88
2024/05/06 01:58:37;;;;;;;3.25;1.42;;;;;;;;;;5456600;26;20002;-90
2024/05/06 02:01:03;;;;;;;2.63;1.50;;;;;;;;;;5455926;26;20009;-90
2024/05/06 02:03:29;;;;;;;2.40;1.83;;;;;;;;;;5455955;26;20047;-91
2024/05/06 02:05:55;;;;;;;7.47;1.90;;;;;;;;;;5456606;26;20431;-89
2024/05/06 02:08:21;;;;;;;4.40;1.73;;;;;;;;;;5456593;26;20004;-89
2024/05/06 02:10:47;;;;;;;2.97;1.40;;;;;;;;;;5456692;26;20008;-89
2024/05/06 02:13:13;;;;;;;3.90;1.70;;;;;;;;;;5457032;26;20010;-89
2024/05/06 02:15:39;;;;;;;2.67;1.60;;;;;;;;;;5456216;26;19993;-90
2024/05/06 02:18:05;;;;;;;5.05;1.50;;;;;;;;;;5456087;26;20143;-90
2024/05/06 02:20:31;;;;;;;2.10;1.48;;;;;;;;;;5452989;26;20439;-88
2024/05/06 02:22:57;;;;;;;2.75;1.60;;;;;;;;;;5455701;26;19994;-91
2024/05/06 02:25:23;;;;;;;3.78;1.40;;;;;;;;;;5443334;26;19995;-88
2024/05/06 02:27:49;;;;;;;2.47;1.50;;;;;;;;;;5482006;26;20009;-89
2024/05/06 02:30:15;;;;;;;2.70;1.30;;;;;;;;;;5478567;26;20002;-87
2024/05/06 02:32:41;;;;;;;4.20;1.50;;;;;;;;;;5456437;26;20326;-90
2024/05/06 02:35:07;;;;;;;6.05;1.48;;;;;;;;;;5455821;26;20043;-87
2024/05/06 02:37:34;;;;;;;3.38;1.40;;;;;;;;;;5456083;26;19994;-89
2024/05/06 02:40:00;;;;;;;3.90;1.60;;;;;;;;;;5455935;26;20009;-90
2024/05/06 02:42:26;;;;;;;2.58;1.40;;;;;;;;;;5452855;25;19999;-87
2024/05/06 02:44:52;;;;;;;1.85;1.25;;;;;;;;;;5490890;26;20001;-88
2024/05/06 02:47:18;;;;;;;1.45;1.33;;;;;;;;;;5491431;26;20000;-90
2024/05/06 02:49:44;;;;;;;4.07;1.55;;;;;;;;;;5492557;26;19993;-88
2024/05/06 02:52:10;;;;;;;2.72;1.33;;;;;;;;;;5474502;26;19990;-88
2024/05/06 02:54:36;;;;;;;2.33;1.35;;;;;;;;;;5463157;26;20414;-88
2024/05/06 02:57:02;;;;;;;1.70;1.10;;;;;;;;;;5484748;26;20006;-88
2024/05/06 02:59:28;;;;;;;1.20;1.10;;;;;;;;;;5480694;26;20006;-90
2024/05/06 03:01:54;;;;;;;3.85;1.50;;;;;;;;;;5455572;26;19997;-90
2024/05/06 03:04:20;;;;;;;2.63;1.40;;;;;;;;;;5430633;26;20009;-90
2024/05/06 03:06:46;;;;;;;2.95;1.40;;;;;;;;;;5420609;26;20059;-90
2024/05/06 03:09:15;;;;;;;2.97;1.50;;;;;;;;;;5419840;26;19999;-91
2024/05/06 03:11:41;;;;;;;1.33;1.20;;;;;;;;;;5419430;26;19991;-91
2024/05/06 03:14:10;;;;;;;2.58;1.58;;;;;;;;;;5419704;26;20005;-89
2024/05/06 03:16:40;;;;;;;3.38;1.50;;;;;;;;;;5419937;26;20007;-89
2024/05/06 03:19:09;;;;;;;3.53;1.60;;;;;;;;;;5419745;26;19991;-89
2024/05/06 03:21:35;;;;;;;2.75;1.65;;;;;;;;;;5419364;26;19994;-87
2024/05/06 03:24:01;;;;;;;5.35;1.63;;;;;;;;;;5419103;26;20014;-89
2024/05/06 03:26:27;;;;;;;5.35;1.80;;;;;;;;;;5419610;26;19995;-89
2024/05/06 03:28:53;;;;;;;6.25;1.67;;;;;;;;;;5452272;26;20338;-88
2024/05/06 03:31:20;;;;;;;4.47;1.80;;;;;;;;;;5455944;26;20001;-88
2024/05/06 03:33:46;;;;;;;2.65;1.45;;;;;;;;;;5455982;26;20005;-88
2024/05/06 03:36:12;;;;;;;2.92;1.60;;;;;;;;;;5454945;26;20520;-90
2024/05/06 03:38:38;;;;;;;4.57;1.60;;;;;;;;;;5454983;26;19994;-89
2024/05/06 03:41:04;;;;;;;3.80;1.58;;;;;;;;;;5460474;26;20536;-88
2024/05/06 03:43:30;;;;;;;3.00;1.52;;;;;;;;;;5454810;26;19998;-90
2024/05/06 03:45:56;;;;;;;3.55;1.48;;;;;;;;;;5455273;26;19990;-88
2024/05/06 03:48:22;;;;;;;4.53;1.80;;;;;;;;;;5454856;26;20431;-89
2024/05/06 03:50:48;;;;;;;4.65;1.70;;;;;;;;;;5455568;26;19990;-89
2024/05/06 03:53:14;;;;;;;7.00;1.50;;;;;;;;;;5454763;26;20002;-89
2024/05/06 03:55:40;;;;;;;7.75;1.88;;;;;;;;;;5455103;26;20464;-88
2024/05/06 03:58:06;;;;;;;6.20;1.88;;;;;;;;;;5457426;26;19998;-90
2024/05/06 04:00:32;;;;;;;4.75;1.90;;;;;;;;;;5458495;26;19990;-91
2024/05/06 04:02:58;;;;;;;4.15;1.70;;;;;;;;;;5458528;26;20069;-90
2024/05/06 04:05:24;;;;;;;3.33;1.65;;;;;;;;;;5458448;26;20322;-90
2024/05/06 04:07:53;;;;;;;6.72;1.80;;;;;;;;;;5458885;26;19994;-89
2024/05/06 04:10:21;;;;;;;5.57;1.73;;;;;;;;;;5459316;26;20018;-90
2024/05/06 04:12:47;;;;;;;6.28;1.77;;;;;;;;;;5458292;26;20341;-89
2024/05/06 04:15:13;;;;;;;4.40;1.73;;;;;;;;;;5458082;26;20511;-90
2024/05/06 04:17:39;;;;;;;6.95;2.10;;;;;;;;;;5457768;26;19998;-90
2024/05/06 04:20:05;;;;;;;5.35;1.70;;;;;;;;;;5457801;26;20005;-89
2024/05/06 04:22:31;;;;;;;5.68;1.60;;;;;;;;;;5457478;26;20012;-89
2024/05/06 04:27:44;;;;;;;4.55;1.80;;;;;;;;;;5453675;26;20532;-94
2024/05/06 04:30:10;;;;;;;2.60;1.70;;;;;;;;;;5421591;26;20067;-89
2024/05/06 04:32:36;;;;;;;7.75;1.80;;;;;;;;;;5452495;26;20107;-90
2024/05/06 04:35:02;;;;;;;5.30;2.03;;;;;;;;;;5424655;26;20010;-89
2024/05/06 04:37:28;;;;;;;5.30;1.65;;;;;;;;;;5457256;26;20002;-90
2024/05/06 04:39:54;;;;;;;5.78;1.80;;;;;;;;;;5457315;26;20006;-89
2024/05/06 04:42:20;;;;;;;5.72;1.70;;;;;;;;;;5458271;26;20020;-89
2024/05/06 04:44:46;;;;;;;7.03;1.80;;;;;;;;;;5457400;26;19990;-90
2024/05/06 04:47:12;;;;;;;6.07;1.63;;;;;;;;;;5457821;26;20326;-91
2024/05/06 04:49:38;;;;;;;6.72;1.80;;;;;;;;;;5489126;26;20006;-88
2024/05/06 04:52:05;;;;;;;2.72;1.70;;;;;;;;;;5457729;26;20070;-90
2024/05/06 04:54:31;;;;;;;5.53;2.25;;;;;;;;;;5421334;26;19995;-90
2024/05/06 04:56:57;;;;;;;3.90;1.80;;;;;;;;;;5421572;26;19991;-90
2024/05/06 04:59:23;;;;;;;3.05;1.70;;;;;;;;;;5422430;26;20406;-90
2024/05/06 05:01:52;;;;;;;3.65;1.60;;;;;;;;;;5423617;26;20002;-90
2024/05/06 05:04:18;;;;;;;4.05;1.80;;;;;;;;;;5487353;26;20002;-89
2024/05/06 05:06:44;;;;;;;6.00;1.90;;;;;;;;;;5462198;26;20320;-88
2024/05/06 05:09:12;;;;;;;5.93;1.75;;;;;;;;;;5453762;26;20029;-88
2024/05/06 05:11:38;;;;;;;3.28;2.30;;;;;;;;;;5457033;26;20004;-90
2024/05/06 05:14:04;;;;;;;6.80;1.83;;;;;;;;;;5456689;26;20450;-89
2024/05/06 05:16:30;;;;;;;3.88;1.50;;;;;;;;;;5456872;26;20013;-92
2024/05/06 05:18:56;;;;;;;4.03;1.80;;;;;;;;;;5457111;26;19990;-87
2024/05/06 05:21:22;;;;;;;3.92;1.65;;;;;;;;;;5457818;26;20038;-89
2024/05/06 05:23:48;;;;;;;5.80;1.70;;;;;;;;;;5457187;26;19990;-92
2024/05/06 05:26:14;;;;;;;6.22;2.00;;;;;;;;;;5457431;26;20423;-92
2024/05/06 05:28:40;;;;;;;6.50;2.72;;;;;;;;;;5456295;26;20002;-92
2024/05/06 05:31:06;;;;;;;5.82;1.70;;;;;;;;;;5457450;26;20006;-91
2024/05/06 05:33:32;;;;;;;3.05;1.50;;;;;;;;;;5457422;26;20514;-92
2024/05/06 05:35:58;;;;;;;4.88;1.67;;;;;;;;;;5458645;26;19998;-90
2024/05/06 05:38:26;;;;;;;3.63;1.90;;;;;;;;;;5427313;26;19995;-92
2024/05/06 05:40:51;;;;;;;3.90;1.75;;;;;;;;;;5421323;26;19998;-91
2024/05/06 05:43:17;;;;;;;3.78;1.80;;;;;;;;;;5449475;26;20009;-89
2024/05/06 05:45:43;;;;;;;6.68;2.20;;;;;;;;;;5456116;26;20403;-89
2024/05/06 05:48:10;;;;;;;2.97;1.33;;;;;;;;;;5456383;26;19994;-89
2024/05/06 05:50:39;;;;;;;6.57;1.65;;;;;;;;;;5456235;26;19994;-89
2024/05/06 05:53:05;;;;;;;3.78;1.67;;;;;;;;;;5484898;26;20009;-90
2024/05/06 05:55:31;;;;;;;6.55;1.80;;;;;;;;;;5461872;26;20002;-89
2024/05/06 05:57:57;;;;;;;5.25;1.75;;;;;;;;;;5455855;26;19994;-88
2024/05/06 06:00:23;;;;;;;8.05;1.80;;;;;;;;;;5451760;25;20005;-90
2024/05/06 06:02:49;;;;;;;10.30;1.73;;;;;;;;;;5466429;26;19993;-92
2024/05/06 06:05:15;;;;;;;5.95;1.80;;;;;;;;;;5492132;26;20791;-89
2024/05/06 06:07:41;;;;;;;3.53;1.60;;;;;;;;;;5491682;26;20001;-90
2024/05/06 06:10:07;;;;;;;3.45;1.50;;;;;;;;;;5470090;26;20006;-91
2024/05/06 06:12:33;;;;;;;6.32;1.70;;;;;;;;;;5456072;26;19990;-90
2024/05/06 06:14:59;;;;;;;5.47;1.85;;;;;;;;;;5455669;26;19998;-91
2024/05/06 06:17:28;;;;;;;4.00;1.50;;;;;;;;;;5455438;26;20002;-89
2024/05/06 06:19:54;;;;;;;5.53;1.50;;;;;;;;;;5456004;26;20041;-91
2024/05/06 06:22:20;;;;;;;4.05;1.60;;;;;;;;;;5456053;26;20434;-91
2024/05/06 06:24:46;;;;;;;5.05;2.05;;;;;;;;;;5455796;26;20004;-91
2024/05/06 06:27:12;;;;;;;7.60;2.05;;;;;;;;;;5456178;26;20081;-90
2024/05/06 06:29:38;;;;;;;8.15;1.95;;;;;;;;;;5455902;26;19997;-90
2024/05/06 06:32:04;;;;;;;3.95;2.10;;;;;;;;;;5456311;26;20005;-91
2024/05/06 06:34:30;;;;;;;4.93;1.90;;;;;;;;;;5455453;26;20001;-90
2024/05/06 06:36:56;;;;;;;6.93;2.00;;;;;;;;;;5455403;26;20005;-89
2024/05/06 06:39:22;;;;;;;5.20;1.90;;;;;;;;;;5455831;26;19998;-88
2024/05/06 06:41:49;;;;;;;3.72;1.80;;;;;;;;;;5455195;26;20010;-89
2024/05/06 06:44:15;;;;;;;3.60;1.73;;;;;;;;;;5455564;26;20344;-92
2024/05/06 06:46:41;;;;;;;4.50;1.90;;;;;;;;;;5455230;26;19990;-92
2024/05/06 06:49:07;;;;;;;2.17;1.55;;;;;;;;;;5455912;26;20196;-89
2024/05/06 06:51:33;;;;;;;10.98;2.10;;;;;;;;;;5455333;26;20002;-89
2024/05/06 06:53:59;;;;;;;4.80;1.95;;;;;;;;;;5455242;26;20001;-90
2024/05/06 06:56:25;;;;;;;6.15;1.60;;;;;;;;;;5456282;26;20009;-91
2024/05/06 06:58:51;;;;;;;9.15;1.75;;;;;;;;;;5456112;26;20009;-89
2024/05/06 07:01:17;;;;;;;5.70;1.65;;;;;;;;;;5455284;26;20029;-89
2024/05/06 07:03:43;;;;;;;4.82;1.55;;;;;;;;;;5454106;26;20002;-89
2024/05/06 07:06:09;;;;;;;6.50;1.58;;;;;;;;;;5455074;26;20009;-89
2024/05/06 07:08:35;;;;;;;9.32;1.60;;;;;;;;;;5455064;26;20051;-88
2024/05/06 07:11:01;;;;;;;3.38;1.58;;;;;;;;;;5454975;26;20004;-90
2024/05/06 07:13:27;;;;;;;10.32;1.75;;;;;;;;;;5454999;26;19998;-89
2024/05/06 07:15:53;;;;;;;4.03;1.40;;;;;;;;;;5455781;26;20009;-89
2024/05/06 07:18:19;;;;;;;8.60;1.77;;;;;;;;;;5455320;26;19998;-89
2024/05/06 07:20:44;;;;;;;5.28;1.60;;;;;;;;;;5453653;26;20327;-89
2024/05/06 07:23:11;;;;;;;7.63;1.60;;;;;;;;;;5461604;26;20009;-89
2024/05/06 07:25:36;;;;;;;5.18;1.67;;;;;;;;;;5442673;26;19994;-91
2024/05/06 07:28:02;;;;;;;3.45;1.23;;;;;;;;;;5484808;26;20001;-90
2024/05/06 07:30:28;;;;;;;7.40;1.70;;;;;;;;;;5467958;26;19989;-90
2024/05/06 07:32:54;;;;;;;3.83;1.20;;;;;;;;;;5458088;26;20014;-91
2024/05/06 07:35:22;;;;;;;4.57;1.50;;;;;;;;;;5454280;26;19998;-91
2024/05/06 07:37:48;;;;;;;7.13;1.55;;;;;;;;;;5454923;26;20005;-89
2024/05/06 07:40:14;;;;;;;6.18;1.38;;;;;;;;;;5455096;26;20001;-91
2024/05/06 07:42:40;;;;;;;5.25;1.40;;;;;;;;;;5437678;26;20002;-89
2024/05/06 07:45:07;;;;;;;4.15;1.50;;;;;;;;;;5418657;26;20435;-90
2024/05/06 07:47:33;;;;;;;9.88;1.83;;;;;;;;;;5418412;26;20006;-90
2024/05/06 07:50:01;;;;;;;5.40;1.50;;;;;;;;;;5418591;26;19991;-90
2024/05/06 07:52:27;;;;;;;6.10;1.60;;;;;;;;;;5418544;26;20415;-90
2024/05/06 07:54:53;;;;;;;8.32;1.63;;;;;;;;;;5418621;26;20048;-90
2024/05/06 07:57:20;;;;;;;6.82;1.60;;;;;;;;;;5418128;26;19994;-91
2024/05/06 07:59:46;;;;;;;5.13;1.65;;;;;;;;;;5434484;26;20002;-90
2024/05/06 08:02:12;;;;;;;5.25;1.60;;;;;;;;;;5454428;26;20002;-91
2024/05/06 08:04:38;;;;;;;7.57;1.67;;;;;;;;;;5454017;26;20008;-90
2024/05/06 08:07:05;;;;;;;6.65;1.42;;;;;;;;;;5454188;26;19994;-89
2024/05/06 08:09:32;;;;;;;8.70;1.90;;;;;;;;;;5453896;26;19994;-89
2024/05/06 08:11:58;;;;;;;8.18;1.83;;;;;;;;;;5453706;26;19990;-88
2024/05/06 08:14:24;;;;;;;8.57;1.60;;;;;;;;;;5454368;26;19994;-89
2024/05/06 08:16:50;;;;;;;8.82;2.38;;;;;;;;;;5452969;26;20317;-90
2024/05/06 08:19:16;;;;;;;9.23;2.17;;;;;;;;;;5453599;26;20330;-90
2024/05/06 08:21:42;;;;;;;7.93;1.50;;;;;;;;;;5453401;26;19994;-89
2024/05/06 08:24:08;;;;;;;8.68;1.88;;;;;;;;;;5453661;26;20070;-89
2024/05/06 08:26:34;;;;;;;4.32;1.40;;;;;;;;;;5453317;26;19994;-89
2024/05/06 08:29:00;;;;;;;4.50;1.35;;;;;;;;;;5453380;26;20097;-89
2024/05/06 08:31:26;;;;;;;5.20;1.60;;;;;;;;;;5453088;26;19994;-89
2024/05/06 08:33:52;;;;;;;6.43;1.48;;;;;;;;;;5454318;26;20013;-90
2024/05/06 08:36:18;;;;;;;4.72;1.70;;;;;;;;;;5453129;26;20005;-89
2024/05/06 08:38:44;;;;;;;5.70;1.50;;;;;;;;;;5453129;26;20008;-89
2024/05/06 08:41:10;;;;;;;6.88;1.70;;;;;;;;;;5452446;26;20022;-89
2024/05/06 08:43:37;;;;;;;6.93;1.52;;;;;;;;;;5456646;26;19998;-91
2024/05/06 08:46:04;;;;;;;8.23;2.20;;;;;;;;;;5457491;26;20042;-89
2024/05/06 08:48:30;;;;;;;7.00;1.80;;;;;;;;;;5471038;26;20330;-88
2024/05/06 08:50:58;;;;;;;5.85;1.50;;;;;;;;;;5472228;26;19998;-88
2024/05/06 08:53:24;;;;;;;5.85;1.67;;;;;;;;;;5457439;26;20006;-89
2024/05/06 08:55:51;;;;;;;7.25;1.67;;;;;;;;;;5457620;26;20009;-89
2024/05/06 08:58:18;;;;;;;8.63;1.90;;;;;;;;;;5456887;26;20006;-90
2024/05/06 09:00:45;;;;;;;7.32;1.90;;;;;;;;;;5456927;26;20435;-89
2024/05/06 09:03:11;;;;;;;8.73;1.75;;;;;;;;;;5456898;26;20007;-90
2024/05/06 09:05:51;;;;;;;5.18;1.42;;;;;;;;;;5429589;26;20010;-90
2024/05/06 09:08:17;;;;;;;5.35;1.67;;;;;;;;;;5442828;26;20006;-90
2024/05/06 09:10:45;;;;;;;8.43;1.95;;;;;;;;;;5420140;26;20059;-90
2024/05/06 09:13:11;;;;;;;6.35;1.60;;;;;;;;;;5452481;26;19991;-91
2024/05/06 09:15:37;;;;;;;6.68;1.58;;;;;;;;;;5420123;26;20009;-89
2024/05/06 09:18:03;;;;;;;6.45;1.80;;;;;;;;;;5420532;26;20006;-90
2024/05/06 09:20:29;;;;;;;4.55;1.55;;;;;;;;;;5420098;26;19999;-89
2024/05/06 09:22:56;;;;;;;6.82;1.52;;;;;;;;;;5420252;26;19994;-89
2024/05/06 09:25:23;;;;;;;3.90;1.20;;;;;;;;;;5447391;26;20005;-89
2024/05/06 09:27:49;;;;;;;7.18;1.38;;;;;;;;;;5456145;26;19998;-88
2024/05/06 09:30:15;;;;;;;6.95;1.20;;;;;;;;;;5455947;26;20938;-90
2024/05/06 09:32:43;;;;;;;4.03;1.40;;;;;;;;;;5456038;26;20507;-87
2024/05/06 09:35:10;;;;;;;2.63;0.80;;;;;;;;;;5456496;26;20001;-89
2024/05/06 09:37:40;;;;;;;2.75;0.93;;;;;;;;;;5456550;26;20067;-88
2024/05/06 09:40:09;;;;;;;4.18;1.48;;;;;;;;;;5456637;26;19997;-90
2024/05/06 09:42:35;;;;;;;2.95;1.00;;;;;;;;;;5448276;26;20451;-88
2024/05/06 09:45:01;;;;;;;3.78;1.00;;;;;;;;;;5419965;26;20063;-89
2024/05/06 09:47:30;;;;;;;4.55;1.05;;;;;;;;;;5443333;26;19998;-89
2024/05/06 09:49:57;;;;;;;4.95;1.50;;;;;;;;;;5457988;26;20323;-87
2024/05/06 09:52:24;;;;;;;5.50;1.20;;;;;;;;;;5456411;26;19994;-87
2024/05/06 09:54:51;;;;;;;5.25;1.60;;;;;;;;;;5455098;26;20006;-87
2024/05/06 09:57:17;;;;;;;4.57;1.52;;;;;;;;;;5455987;26;20009;-88
2024/05/06 09:59:47;;;;;;;4.32;1.17;;;;;;;;;;5466826;26;19998;-88
2024/05/06 10:02:21;;;;;;;6.63;1.30;;;;;;;;;;5485716;26;20329;-88
2024/05/06 10:04:47;;;;;;;4.88;1.33;;;;;;;;;;5486050;26;19990;-88
2024/05/06 10:07:15;;;;;;;3.75;1.30;;;;;;;;;;5486556;26;19998;-87
2024/05/06 10:09:45;;;;;;;4.50;1.30;;;;;;;;;;5467530;26;19994;-87
2024/05/06 10:12:11;;;;;;;4.65;1.95;;;;;;;;;;5487381;26;20006;-89
2024/05/06 10:14:37;;;;;;;2.47;1.17;;;;;;;;;;5455355;26;19990;-90
2024/05/06 10:17:09;;;;;;;6.53;1.58;;;;;;;;;;5455335;26;20066;-88
2024/05/06 10:19:35;;;;;;;2.70;1.30;;;;;;;;;;5455701;26;20054;-88
2024/05/06 10:22:01;;;;;;;5.88;1.33;;;;;;;;;;5455179;26;19994;-88
2024/05/06 10:24:27;;;;;;;4.25;1.40;;;;;;;;;;5455313;26;19990;-88
2024/05/06 10:26:56;;;;;;;5.88;1.58;;;;;;;;;;5456446;26;19998;-88
2024/05/06 10:29:23;;;;;;;5.55;1.65;;;;;;;;;;5455448;26;20504;-88
2024/05/06 10:31:49;;;;;;;4.88;1.38;;;;;;;;;;5474995;26;20013;-89
2024/05/06 10:34:19;;;;;;;7.85;1.42;;;;;;;;;;5479876;26;20154;-87
2024/05/06 10:36:45;;;;;;;5.82;1.63;;;;;;;;;;5498663;26;20157;-88
2024/05/06 10:39:12;;;;;;;7.38;1.77;;;;;;;;;;5455725;26;20005;-90
2024/05/06 10:41:38;;;;;;;5.68;1.33;;;;;;;;;;5485848;25;20456;-89
2024/05/06 10:44:05;;;;;;;4.88;1.38;;;;;;;;;;5491835;26;19997;-89
2024/05/06 10:46:31;;;;;;;2.72;1.38;;;;;;;;;;5492079;26;20018;-89
2024/05/06 10:49:01;;;;;;;6.43;1.20;;;;;;;;;;5487364;26;19993;-89
2024/05/06 10:51:27;;;;;;;3.17;1.05;;;;;;;;;;5465028;26;20443;-91
2024/05/06 10:53:54;;;;;;;2.67;1.10;;;;;;;;;;5455746;26;20153;-89
2024/05/06 10:56:20;;;;;;;2.75;1.05;;;;;;;;;;5455220;26;20006;-89
2024/05/06 10:58:46;;;;;;;5.32;1.30;;;;;;;;;;5455221;26;19994;-88
2024/05/06 11:01:12;;;;;;;2.65;1.10;;;;;;;;;;5454870;26;19997;-91
2024/05/06 11:03:39;;;;;;;4.13;0.95;;;;;;;;;;5454991;26;20005;-90
2024/05/06 11:06:05;;;;;;;4.97;1.20;;;;;;;;;;5454946;26;20355;-89
2024/05/06 11:08:31;;;;;;;1.92;0.80;;;;;;;;;;5454585;26;20030;-91
2024/05/06 11:10:57;;;;;;;3.95;0.80;;;;;;;;;;5455218;26;20378;-89
2024/05/06 11:13:24;;;;;;;3.25;1.08;;;;;;;;;;5455717;26;20427;-89
2024/05/06 11:15:50;;;;;;;2.80;0.88;;;;;;;;;;5454839;26;19989;-89
2024/05/06 11:18:19;;;;;;;4.63;0.88;;;;;;;;;;5455069;26;20319;-89
2024/05/06 11:20:45;;;;;;;1.38;0.82;;;;;;;;;;5454809;26;20002;-89
2024/05/06 11:23:11;;;;;;;3.53;0.90;;;;;;;;;;5445717;26;19999;-90
2024/05/06 11:25:44;;;;;;;3.78;1.00;;;;;;;;;;5436883;26;19995;-89
2024/05/06 11:28:10;;;;;;;3.40;1.23;;;;;;;;;;5480282;26;20001;-88
2024/05/06 11:30:36;;;;;;;2.60;1.10;;;;;;;;;;5490201;26;20005;-88
2024/05/06 11:33:08;;;;;;;2.63;1.33;;;;;;;;;;5475833;26;19998;-88
2024/05/06 11:35:36;;;;;;;6.53;2.33;;;;;;;;;;5503119;26;19993;-90
2024/05/06 11:38:02;;;;;;;5.07;3.00;;;;;;;;;;5457439;26;20038;-89
2024/05/06 11:40:28;;;;;;;5.85;2.88;;;;;;;;;;5454598;26;20010;-90
2024/05/06 11:42:54;;;;;;;5.45;3.58;;;;;;;;;;5455504;26;20000;-90
2024/05/06 11:45:20;;;;;;;6.90;3.92;;;;;;;;;;5455194;26;20392;-91
2024/05/06 11:47:46;;;;;;;4.20;2.70;;;;;;;;;;5456483;26;20039;-89
2024/05/06 11:50:12;;;;;;;4.97;2.80;;;;;;;;;;5454858;26;19990;-91
2024/05/06 11:52:38;;;;;;;3.97;2.10;;;;;;;;;;5454058;26;20009;-90
2024/05/06 11:55:05;;;;;;;6.82;2.20;;;;;;;;;;5454310;26;20000;-89
2024/05/06 11:57:31;;;;;;;6.57;1.92;;;;;;;;;;5454307;26;19998;-90
2024/05/06 11:59:58;;;;;;;5.63;1.60;;;;;;;;;;5454382;26;20446;-90
2024/05/06 12:02:24;;;;;;;6.90;2.03;;;;;;;;;;5455306;26;20322;-90
2024/05/06 12:04:51;;;;;;;4.75;1.50;;;;;;;;;;5454274;26;20010;-90
2024/05/06 12:07:17;;;;;;;5.53;1.60;;;;;;;;;;5481210;26;20484;-90
2024/05/06 12:09:43;;;;;;;4.80;1.40;;;;;;;;;;5463821;26;20066;-89
2024/05/06 12:12:09;;;;;;;5.65;1.38;;;;;;;;;;5479665;26;19998;-89
2024/05/06 12:14:35;;;;;;;3.60;1.20;;;;;;;;;;5459513;26;20370;-88
2024/05/06 12:17:01;;;;;;;2.90;1.10;;;;;;;;;;5450054;26;20009;-90
2024/05/06 12:19:27;;;;;;;5.18;1.83;;;;;;;;;;5420235;26;20019;-88
2024/05/06 12:21:53;;;;;;;2.78;1.38;;;;;;;;;;5421366;26;20010;-88
2024/05/06 12:24:19;;;;;;;3.38;1.33;;;;;;;;;;5421062;26;19994;-89
2024/05/06 12:26:45;;;;;;;4.57;1.42;;;;;;;;;;5429213;26;20330;-88
2024/05/06 12:29:13;;;;;;;4.82;1.48;;;;;;;;;;5487131;26;20005;-89
2024/05/06 12:31:39;;;;;;;6.07;1.60;;;;;;;;;;5474411;26;19994;-90
2024/05/06 12:34:05;;;;;;;4.32;1.20;;;;;;;;;;5457121;26;20001;-90
2024/05/06 12:36:31;;;;;;;3.97;1.38;;;;;;;;;;5457544;26;19994;-91
2024/05/06 12:38:59;;;;;;;2.28;1.10;;;;;;;;;;5457453;26;20433;-90
2024/05/06 12:41:25;;;;;;;;;;;;;;;;;;5457877;26;19998;-92
2024/05/06 12:43:51;;;;;;;2.08;0.70;;;;;;;;;;5458276;26;19930;-90
2024/05/06 12:46:17;;;;;;;2.67;0.93;;;;;;;;;;5457230;26;20071;-90
2024/05/06 12:48:45;;;;;;;4.68;1.17;;;;;;;;;;5441299;26;20331;-89
2024/05/06 12:51:11;;;;;;;3.15;1.08;;;;;;;;;;5421140;26;20026;-88
2024/05/06 12:53:37;;;;;;;2.67;1.00;;;;;;;;;;5420888;26;20162;-89
2024/05/06 12:56:03;;;;;;;2.17;1.00;;;;;;;;;;5421348;26;19995;-90
2024/05/06 12:58:29;;;;;;;1.38;0.90;;;;;;;;;;5421120;26;20010;-88
2024/05/06 13:00:55;;;;;;;2.42;0.90;;;;;;;;;;5421663;26;20023;-90
2024/05/06 13:03:24;;;;;;;2.45;0.80;;;;;;;;;;5422275;26;19998;-90
2024/05/06 13:05:51;;;;;;;3.08;0.80;;;;;;;;;;5421568;26;20006;-91
2024/05/06 13:08:17;;;;;;;1.00;0.80;;;;;;;;;;5420781;26;20010;-89
2024/05/06 13:10:43;;;;;;;1.85;0.80;;;;;;;;;;5420618;26;19998;-89
2024/05/06 13:13:09;;;;;;;1.67;0.80;;;;;;;;;;5420403;26;20014;-89
2024/05/06 13:15:35;;;;;;;3.17;1.08;;;;;;;;;;5423238;26;19995;-89
2024/05/06 13:18:01;;;;;;;2.78;1.02;;;;;;;;;;5459773;26;20462;-90
2024/05/06 13:20:27;;;;;;;4.25;1.20;;;;;;;;;;5485275;26;20070;-92
2024/05/06 13:22:54;;;;;;;1.45;0.93;;;;;;;;;;5444617;26;20022;-90
2024/05/06 13:25:20;;;;;;;2.33;1.05;;;;;;;;;;5461744;26;20346;-89
2024/05/06 13:27:49;;;;;;;2.55;1.10;;;;;;;;;;5435778;26;20002;-89
2024/05/06 13:30:16;;;;;;;2.05;0.80;;;;;;;;;;5459109;26;20324;-90
2024/05/06 13:32:42;;;;;;;2.88;1.00;;;;;;;;;;5445274;26;20003;-89
2024/05/06 13:35:08;;;;;;;2.05;0.98;;;;;;;;;;5464234;26;19998;-91
2024/05/06 13:37:35;;;;;;;3.60;1.02;;;;;;;;;;5480513;26;20393;-89
2024/05/06 13:40:01;;;;;;;1.33;0.80;;;;;;;;;;5484974;26;20460;-89
2024/05/06 13:42:27;;;;;;;2.72;0.85;;;;;;;;;;5468807;26;20009;-89
2024/05/06 13:44:53;;;;;;;1.10;0.80;;;;;;;;;;5450529;26;20003;-89
2024/05/06 13:47:19;;;;;;;3.70;0.55;;;;;;;;;;5454670;26;20034;-89
2024/05/06 13:49:45;;;;;;;1.48;0.95;;;;;;;;;;5428389;26;20245;-89
2024/05/06 13:52:11;;;;;;;2.05;0.90;;;;;;;;;;5455361;26;20070;-89
2024/05/06 13:54:37;;;;;;;3.85;0.77;;;;;;;;;;5486022;26;20477;-88
2024/05/06 13:57:03;;;;;;;1.42;1.10;;;;;;;;;;5471231;26;20018;-89
2024/05/06 13:59:29;;;;;;;1.35;0.63;;;;;;;;;;5454139;26;20008;-90
2024/05/06 14:01:55;;;;;;;1.63;0.88;;;;;;;;;;5427758;26;20017;-88
2024/05/06 14:04:22;;;;;;;1.65;0.90;;;;;;;;;;5427407;26;20009;-90
2024/05/06 14:06:48;;;;;;;3.45;0.98;;;;;;;;;;5476366;26;20027;-88
2024/05/06 14:09:14;;;;;;;1.52;0.85;;;;;;;;;;5460518;26;19994;-90
2024/05/06 14:11:40;;;;;;;3.33;1.10;;;;;;;;;;5469549;26;19998;-90
2024/05/06 14:14:06;;;;;;;4.32;1.00;;;;;;;;;;5455800;26;19994;-90
2024/05/06 14:16:32;;;;;;;1.77;1.08;;;;;;;;;;5454606;26;20503;-89
2024/05/06 14:19:00;;;;;;;2.53;1.35;;;;;;;;;;5455742;26;20488;-90
2024/05/06 14:21:26;;;;;;;2.42;1.05;;;;;;;;;;5453891;26;20033;-89
2024/05/06 14:23:52;;;;;;;2.65;1.02;;;;;;;;;;5471498;26;20003;-89
2024/05/06 14:26:18;;;;;;;2.95;0.90;;;;;;;;;;5455553;26;19994;-89
2024/05/06 14:28:44;;;;;;;2.15;1.00;;;;;;;;;;5455181;26;20022;-89
2024/05/06 14:31:13;;;;;;;2.40;1.00;;;;;;;;;;5450796;26;20003;-88
2024/05/06 14:33:42;;;;;;;3.40;1.00;;;;;;;;;;5481621;26;19994;-89
2024/05/06 14:36:08;;;;;;;1.80;1.23;;;;;;;;;;5462989;26;19994;-88
2024/05/06 14:38:34;;;;;;;3.55;1.40;;;;;;;;;;5479391;26;20350;-89
2024/05/06 14:41:00;;;;;;;5.20;1.10;;;;;;;;;;5484747;26;19994;-88